sensor_id;sensor_type;location;lat;lon;timestamp;P1;P2;P0
55276;PMS5003;41136;51.478;-2.610;2023-11-22T00:02:25;18;15;
55276;PMS5003;41136;51.478;-2.610;2023-11-22T00:04:50;10;10;
55276;PMS5003;41136;51.478;-2.610;2023-11-22T00:07:15;16;15;
55276;PMS5003;41136;51.478;-2.610;2023-11-22T00:09:41;10;10;
55276;PMS5003;41136;51.478;-2.610;2023-11-22T00:12:06;12;10;
55276;PMS5003;41136;51.478;-2.610;2023-11-22T00:14:31;10;10;
55276;PMS5003;41136;51.478;-2.610;2023-11-22T00:16:57;8;8;
55276;PMS5003;41136;51.478;-2.610;2023-11-22T00:19:22;9;8;
55276;PMS5003;41136;51.478;-2.610;2023-11-22T00:21:48;11;8;
55276;PMS5003;41136;51.478;-2.610;2023-11-22T00:24:13;10;9;
55276;PMS5003;41136;51.478;-2.610;2023-11-22T00:26:38;9;9;
55276;PMS5003;41136;51.478;-2.610;2023-11-22T00:29:03;11;10;
55276;PMS5003;41136;51.478;-2.610;2023-11-22T00:31:29;11;10;
55276;PMS5003;41136;51.478;-2.610;2023-11-22T00:33:54;15;13;
55276;PMS5003;41136;51.478;-2.610;2023-11-22T00:36:20;11;10;
55276;PMS5003;41136;51.478;-2.610;2023-11-22T00:38:45;11;10;
55276;PMS5003;41136;51.478;-2.610;2023-11-22T00:41:11;11;10;
55276;PMS5003;41136;51.478;-2.610;2023-11-22T00:43:36;12;11;
55276;PMS5003;41136;51.478;-2.610;2023-11-22T00:46:01;11;9;
55276;PMS5003;41136;51.478;-2.610;2023-11-22T00:48:27;12;10;
55276;PMS5003;41136;51.478;-2.610;2023-11-22T00:50:52;8;8;
55276;PMS5003;41136;51.478;-2.610;2023-11-22T00:53:18;9;8;
55276;PMS5003;41136;51.478;-2.610;2023-11-22T00:55:43;11;8;
55276;PMS5003;41136;51.478;-2.610;2023-11-22T00:58:08;11;11;
55276;PMS5003;41136;51.478;-2.610;2023-11-22T01:00:34;11;10;
55276;PMS5003;41136;51.478;-2.610;2023-11-22T01:02:59;12;11;
55276;PMS5003;41136;51.478;-2.610;2023-11-22T01:05:25;13;10;
55276;PMS5003;41136;51.478;-2.610;2023-11-22T01:07:50;10;10;
55276;PMS5003;41136;51.478;-2.610;2023-11-22T01:10:15;10;9;
55276;PMS5003;41136;51.478;-2.610;2023-11-22T01:12:41;12;11;
55276;PMS5003;41136;51.478;-2.610;2023-11-22T01:15:06;10;10;
55276;PMS5003;41136;51.478;-2.610;2023-11-22T01:17:32;10;9;
55276;PMS5003;41136;51.478;-2.610;2023-11-22T01:19:57;9;9;
55276;PMS5003;41136;51.478;-2.610;2023-11-22T01:22:22;11;10;
55276;PMS5003;41136;51.478;-2.610;2023-11-22T01:24:48;9;9;
55276;PMS5003;41136;51.478;-2.610;2023-11-22T01:27:13;10;10;
55276;PMS5003;41136;51.478;-2.610;2023-11-22T01:29:39;9;9;
55276;PMS5003;41136;51.478;-2.610;2023-11-22T01:32:04;8;8;
55276;PMS5003;41136;51.478;-2.610;2023-11-22T01:34:29;11;11;
55276;PMS5003;41136;51.478;-2.610;2023-11-22T01:36:54;10;10;
55276;PMS5003;41136;51.478;-2.610;2023-11-22T01:39:20;9;9;
55276;PMS5003;41136;51.478;-2.610;2023-11-22T01:41:45;10;8;
55276;PMS5003;41136;51.478;-2.610;2023-11-22T01:44:11;10;9;
55276;PMS5003;41136;51.478;-2.610;2023-11-22T01:46:37;9;9;
55276;PMS5003;41136;51.478;-2.610;2023-11-22T01:49:01;9;9;
55276;PMS5003;41136;51.478;-2.610;2023-11-22T01:51:27;11;11;
55276;PMS5003;41136;51.478;-2.610;2023-11-22T01:53:52;9;9;
55276;PMS5003;41136;51.478;-2.610;2023-11-22T01:56:17;9;7;
55276;PMS5003;41136;51.478;-2.610;2023-11-22T01:58:43;13;10;
55276;PMS5003;41136;51.478;-2.610;2023-11-22T02:01:08;8;8;
55276;PMS5003;41136;51.478;-2.610;2023-11-22T02:03:33;10;10;
55276;PMS5003;41136;51.478;-2.610;2023-11-22T02:05:59;10;10;
55276;PMS5003;41136;51.478;-2.610;2023-11-22T02:08:24;8;8;
55276;PMS5003;41136;51.478;-2.610;2023-11-22T02:13:15;10;10;
55276;PMS5003;41136;51.478;-2.610;2023-11-22T02:15:40;7;6;
55276;PMS5003;41136;51.478;-2.610;2023-11-22T02:18:06;9;7;
55276;PMS5003;41136;51.478;-2.610;2023-11-22T02:20:31;8;7;
55276;PMS5003;41136;51.478;-2.610;2023-11-22T02:22:56;9;8;
55276;PMS5003;41136;51.478;-2.610;2023-11-22T02:25:22;7;6;
55276;PMS5003;41136;51.478;-2.610;2023-11-22T02:27:47;6;6;
55276;PMS5003;41136;51.478;-2.610;2023-11-22T02:30:12;7;6;
55276;PMS5003;41136;51.478;-2.610;2023-11-22T02:32:37;6;4;
55276;PMS5003;41136;51.478;-2.610;2023-11-22T02:35:03;8;8;
55276;PMS5003;41136;51.478;-2.610;2023-11-22T02:37:28;6;6;
55276;PMS5003;41136;51.478;-2.610;2023-11-22T02:39:55;7;5;
55276;PMS5003;41136;51.478;-2.610;2023-11-22T02:42:19;8;6;
55276;PMS5003;41136;51.478;-2.610;2023-11-22T02:44:44;8;7;
55276;PMS5003;41136;51.478;-2.610;2023-11-22T02:47:10;7;7;
55276;PMS5003;41136;51.478;-2.610;2023-11-22T02:49:35;6;5;
55276;PMS5003;41136;51.478;-2.610;2023-11-22T02:55:16;6;6;
55276;PMS5003;41136;51.478;-2.610;2023-11-22T02:57:41;7;6;
55276;PMS5003;41136;51.478;-2.610;2023-11-22T03:00:07;5;5;
55276;PMS5003;41136;51.478;-2.610;2023-11-22T03:02:31;7;5;
55276;PMS5003;41136;51.478;-2.610;2023-11-22T03:04:57;5;5;
55276;PMS5003;41136;51.478;-2.610;2023-11-22T03:07:22;6;4;
55276;PMS5003;41136;51.478;-2.610;2023-11-22T03:09:48;4;4;
55276;PMS5003;41136;51.478;-2.610;2023-11-22T03:12:13;4;4;
55276;PMS5003;41136;51.478;-2.610;2023-11-22T03:14:38;5;3;
55276;PMS5003;41136;51.478;-2.610;2023-11-22T03:17:03;7;5;
55276;PMS5003;41136;51.478;-2.610;2023-11-22T03:19:29;6;6;
55276;PMS5003;41136;51.478;-2.610;2023-11-22T03:21:54;5;5;
55276;PMS5003;41136;51.478;-2.610;2023-11-22T03:24:19;7;4;
55276;PMS5003;41136;51.478;-2.610;2023-11-22T03:26:45;4;3;
55276;PMS5003;41136;51.478;-2.610;2023-11-22T03:29:10;5;5;
55276;PMS5003;41136;51.478;-2.610;2023-11-22T03:31:35;5;5;
55276;PMS5003;41136;51.478;-2.610;2023-11-22T03:34:01;7;6;
55276;PMS5003;41136;51.478;-2.610;2023-11-22T03:36:26;6;6;
55276;PMS5003;41136;51.478;-2.610;2023-11-22T03:38:52;6;6;
55276;PMS5003;41136;51.478;-2.610;2023-11-22T03:41:17;7;5;
55276;PMS5003;41136;51.478;-2.610;2023-11-22T03:43:42;5;5;
55276;PMS5003;41136;51.478;-2.610;2023-11-22T03:46:08;8;7;
55276;PMS5003;41136;51.478;-2.610;2023-11-22T03:48:33;4;4;
55276;PMS5003;41136;51.478;-2.610;2023-11-22T03:50:58;6;6;
55276;PMS5003;41136;51.478;-2.610;2023-11-22T03:53:24;6;6;
55276;PMS5003;41136;51.478;-2.610;2023-11-22T03:55:49;7;7;
55276;PMS5003;41136;51.478;-2.610;2023-11-22T03:58:15;8;8;
55276;PMS5003;41136;51.478;-2.610;2023-11-22T04:00:40;10;7;
55276;PMS5003;41136;51.478;-2.610;2023-11-22T04:03:05;9;7;
55276;PMS5003;41136;51.478;-2.610;2023-11-22T04:05:31;9;9;
55276;PMS5003;41136;51.478;-2.610;2023-11-22T04:07:56;6;6;
55276;PMS5003;41136;51.478;-2.610;2023-11-22T04:10:21;8;6;
55276;PMS5003;41136;51.478;-2.610;2023-11-22T04:12:47;9;7;
55276;PMS5003;41136;51.478;-2.610;2023-11-22T04:15:12;9;9;
55276;PMS5003;41136;51.478;-2.610;2023-11-22T04:17:38;8;8;
55276;PMS5003;41136;51.478;-2.610;2023-11-22T04:20:04;11;10;
55276;PMS5003;41136;51.478;-2.610;2023-11-22T04:22:28;8;8;
55276;PMS5003;41136;51.478;-2.610;2023-11-22T04:24:53;8;7;
55276;PMS5003;41136;51.478;-2.610;2023-11-22T04:27:19;8;8;
55276;PMS5003;41136;51.478;-2.610;2023-11-22T04:29:44;9;9;
55276;PMS5003;41136;51.478;-2.610;2023-11-22T04:32:09;7;7;
55276;PMS5003;41136;51.478;-2.610;2023-11-22T04:34:35;9;6;
55276;PMS5003;41136;51.478;-2.610;2023-11-22T04:37:00;8;8;
55276;PMS5003;41136;51.478;-2.610;2023-11-22T04:39:25;8;8;
55276;PMS5003;41136;51.478;-2.610;2023-11-22T04:41:51;10;8;
55276;PMS5003;41136;51.478;-2.610;2023-11-22T04:44:16;6;6;
55276;PMS5003;41136;51.478;-2.610;2023-11-22T04:46:42;6;6;
55276;PMS5003;41136;51.478;-2.610;2023-11-22T04:49:07;11;8;
55276;PMS5003;41136;51.478;-2.610;2023-11-22T04:51:32;8;8;
55276;PMS5003;41136;51.478;-2.610;2023-11-22T04:53:58;9;7;
55276;PMS5003;41136;51.478;-2.610;2023-11-22T04:56:23;5;5;
55276;PMS5003;41136;51.478;-2.610;2023-11-22T04:58:49;10;9;
55276;PMS5003;41136;51.478;-2.610;2023-11-22T05:01:14;7;7;
55276;PMS5003;41136;51.478;-2.610;2023-11-22T05:03:39;8;7;
55276;PMS5003;41136;51.478;-2.610;2023-11-22T05:06:05;8;7;
55276;PMS5003;41136;51.478;-2.610;2023-11-22T05:08:30;6;6;
55276;PMS5003;41136;51.478;-2.610;2023-11-22T05:10:55;9;7;
55276;PMS5003;41136;51.478;-2.610;2023-11-22T05:13:20;9;8;
55276;PMS5003;41136;51.478;-2.610;2023-11-22T05:15:46;7;7;
55276;PMS5003;41136;51.478;-2.610;2023-11-22T05:18:11;10;10;
55276;PMS5003;41136;51.478;-2.610;2023-11-22T05:20:37;8;8;
55276;PMS5003;41136;51.478;-2.610;2023-11-22T05:23:02;7;7;
55276;PMS5003;41136;51.478;-2.610;2023-11-22T05:25:27;10;8;
55276;PMS5003;41136;51.478;-2.610;2023-11-22T05:27:52;11;9;
55276;PMS5003;41136;51.478;-2.610;2023-11-22T05:30:18;10;9;
55276;PMS5003;41136;51.478;-2.610;2023-11-22T05:32:43;7;7;
55276;PMS5003;41136;51.478;-2.610;2023-11-22T05:35:09;6;6;
55276;PMS5003;41136;51.478;-2.610;2023-11-22T05:37:34;6;6;
55276;PMS5003;41136;51.478;-2.610;2023-11-22T05:39:59;6;6;
55276;PMS5003;41136;51.478;-2.610;2023-11-22T05:42:24;8;6;
55276;PMS5003;41136;51.478;-2.610;2023-11-22T05:47:37;7;7;
55276;PMS5003;41136;51.478;-2.610;2023-11-22T05:52:02;9;6;
55276;PMS5003;41136;51.478;-2.610;2023-11-22T05:54:27;7;7;
55276;PMS5003;41136;51.478;-2.610;2023-11-22T05:56:53;7;6;
55276;PMS5003;41136;51.478;-2.610;2023-11-22T05:59:18;9;8;
55276;PMS5003;41136;51.478;-2.610;2023-11-22T06:01:43;8;6;
55276;PMS5003;41136;51.478;-2.610;2023-11-22T06:04:09;10;9;
55276;PMS5003;41136;51.478;-2.610;2023-11-22T06:06:34;8;7;
55276;PMS5003;41136;51.478;-2.610;2023-11-22T06:09:00;8;7;
55276;PMS5003;41136;51.478;-2.610;2023-11-22T06:11:25;7;7;
55276;PMS5003;41136;51.478;-2.610;2023-11-22T06:13:50;11;9;
55276;PMS5003;41136;51.478;-2.610;2023-11-22T06:16:16;10;9;
55276;PMS5003;41136;51.478;-2.610;2023-11-22T06:18:41;8;8;
55276;PMS5003;41136;51.478;-2.610;2023-11-22T06:21:07;5;5;
55276;PMS5003;41136;51.478;-2.610;2023-11-22T06:23:32;6;6;
55276;PMS5003;41136;51.478;-2.610;2023-11-22T06:25:57;5;5;
55276;PMS5003;41136;51.478;-2.610;2023-11-22T06:28:22;4;4;
55276;PMS5003;41136;51.478;-2.610;2023-11-22T06:30:48;5;5;
55276;PMS5003;41136;51.478;-2.610;2023-11-22T06:33:13;5;5;
55276;PMS5003;41136;51.478;-2.610;2023-11-22T06:35:39;6;6;
55276;PMS5003;41136;51.478;-2.610;2023-11-22T06:38:04;5;5;
55276;PMS5003;41136;51.478;-2.610;2023-11-22T06:40:29;6;6;
55276;PMS5003;41136;51.478;-2.610;2023-11-22T06:42:54;5;5;
55276;PMS5003;41136;51.478;-2.610;2023-11-22T06:45:20;6;5;
55276;PMS5003;41136;51.478;-2.610;2023-11-22T06:47:45;5;5;
55276;PMS5003;41136;51.478;-2.610;2023-11-22T06:50:11;5;5;
55276;PMS5003;41136;51.478;-2.610;2023-11-22T06:52:36;5;5;
55276;PMS5003;41136;51.478;-2.610;2023-11-22T06:55:01;5;5;
55276;PMS5003;41136;51.478;-2.610;2023-11-22T06:57:27;3;3;
55276;PMS5003;41136;51.478;-2.610;2023-11-22T06:59:52;7;6;
55276;PMS5003;41136;51.478;-2.610;2023-11-22T07:02:17;4;4;
55276;PMS5003;41136;51.478;-2.610;2023-11-22T07:04:43;5;5;
55276;PMS5003;41136;51.478;-2.610;2023-11-22T07:07:08;7;5;
55276;PMS5003;41136;51.478;-2.610;2023-11-22T07:09:33;5;5;
55276;PMS5003;41136;51.478;-2.610;2023-11-22T07:11:59;8;8;
55276;PMS5003;41136;51.478;-2.610;2023-11-22T07:14:24;6;6;
55276;PMS5003;41136;51.478;-2.610;2023-11-22T07:16:50;4;4;
55276;PMS5003;41136;51.478;-2.610;2023-11-22T07:19:15;5;5;
55276;PMS5003;41136;51.478;-2.610;2023-11-22T07:21:40;6;5;
55276;PMS5003;41136;51.478;-2.610;2023-11-22T07:24:06;4;4;
55276;PMS5003;41136;51.478;-2.610;2023-11-22T07:26:31;11;5;
55276;PMS5003;41136;51.478;-2.610;2023-11-22T07:28:57;4;4;
55276;PMS5003;41136;51.478;-2.610;2023-11-22T07:31:22;6;6;
55276;PMS5003;41136;51.478;-2.610;2023-11-22T07:33:47;6;6;
55276;PMS5003;41136;51.478;-2.610;2023-11-22T07:36:13;7;4;
55276;PMS5003;41136;51.478;-2.610;2023-11-22T07:38:38;4;4;
55276;PMS5003;41136;51.478;-2.610;2023-11-22T07:41:03;3;3;
55276;PMS5003;41136;51.478;-2.610;2023-11-22T07:43:29;3;3;
55276;PMS5003;41136;51.478;-2.610;2023-11-22T07:45:54;7;7;
55276;PMS5003;41136;51.478;-2.610;2023-11-22T07:48:19;6;5;
55276;PMS5003;41136;51.478;-2.610;2023-11-22T07:50:45;4;4;
55276;PMS5003;41136;51.478;-2.610;2023-11-22T07:53:12;6;5;
55276;PMS5003;41136;51.478;-2.610;2023-11-22T07:55:35;4;4;
55276;PMS5003;41136;51.478;-2.610;2023-11-22T07:58:01;5;5;
55276;PMS5003;41136;51.478;-2.610;2023-11-22T08:00:26;3;3;
55276;PMS5003;41136;51.478;-2.610;2023-11-22T08:02:51;2;2;
55276;PMS5003;41136;51.478;-2.610;2023-11-22T08:05:17;9;5;
55276;PMS5003;41136;51.478;-2.610;2023-11-22T08:07:42;8;4;
55276;PMS5003;41136;51.478;-2.610;2023-11-22T08:10:08;5;5;
55276;PMS5003;41136;51.478;-2.610;2023-11-22T08:12:33;5;5;
55276;PMS5003;41136;51.478;-2.610;2023-11-22T08:14:58;4;4;
55276;PMS5003;41136;51.478;-2.610;2023-11-22T08:17:23;5;4;
55276;PMS5003;41136;51.478;-2.610;2023-11-22T08:19:49;6;3;
55276;PMS5003;41136;51.478;-2.610;2023-11-22T08:22:14;5;5;
55276;PMS5003;41136;51.478;-2.610;2023-11-22T08:24:40;5;5;
55276;PMS5003;41136;51.478;-2.610;2023-11-22T08:27:05;4;4;
55276;PMS5003;41136;51.478;-2.610;2023-11-22T08:29:30;6;6;
55276;PMS5003;41136;51.478;-2.610;2023-11-22T08:31:56;4;4;
55276;PMS5003;41136;51.478;-2.610;2023-11-22T08:34:21;6;6;
55276;PMS5003;41136;51.478;-2.610;2023-11-22T08:36:46;4;4;
55276;PMS5003;41136;51.478;-2.610;2023-11-22T08:39:12;4;4;
55276;PMS5003;41136;51.478;-2.610;2023-11-22T08:41:37;7;6;
55276;PMS5003;41136;51.478;-2.610;2023-11-22T08:44:02;4;3;
55276;PMS5003;41136;51.478;-2.610;2023-11-22T08:46:28;3;3;
55276;PMS5003;41136;51.478;-2.610;2023-11-22T08:48:53;6;5;
55276;PMS5003;41136;51.478;-2.610;2023-11-22T08:51:18;4;4;
55276;PMS5003;41136;51.478;-2.610;2023-11-22T08:53:44;3;3;
55276;PMS5003;41136;51.478;-2.610;2023-11-22T08:56:09;5;3;
55276;PMS5003;41136;51.478;-2.610;2023-11-22T08:58:34;5;5;
55276;PMS5003;41136;51.478;-2.610;2023-11-22T09:01:00;4;4;
55276;PMS5003;41136;51.478;-2.610;2023-11-22T09:03:25;4;4;
55276;PMS5003;41136;51.478;-2.610;2023-11-22T09:05:50;4;4;
55276;PMS5003;41136;51.478;-2.610;2023-11-22T09:08:16;3;3;
55276;PMS5003;41136;51.478;-2.610;2023-11-22T09:10:41;5;5;
55276;PMS5003;41136;51.478;-2.610;2023-11-22T09:13:07;4;4;
55276;PMS5003;41136;51.478;-2.610;2023-11-22T09:15:32;4;4;
55276;PMS5003;41136;51.478;-2.610;2023-11-22T09:17:57;7;5;
55276;PMS5003;41136;51.478;-2.610;2023-11-22T09:20:22;3;3;
55276;PMS5003;41136;51.478;-2.610;2023-11-22T09:22:48;4;4;
55276;PMS5003;41136;51.478;-2.610;2023-11-22T09:25:13;2;2;
55276;PMS5003;41136;51.478;-2.610;2023-11-22T09:27:38;2;2;
55276;PMS5003;41136;51.478;-2.610;2023-11-22T09:30:04;3;3;
55276;PMS5003;41136;51.478;-2.610;2023-11-22T09:32:29;5;3;
55276;PMS5003;41136;51.478;-2.610;2023-11-22T09:34:54;1;1;
55276;PMS5003;41136;51.478;-2.610;2023-11-22T09:37:20;4;2;
55276;PMS5003;41136;51.478;-2.610;2023-11-22T09:39:45;3;2;
55276;PMS5003;41136;51.478;-2.610;2023-11-22T09:42:10;3;3;
55276;PMS5003;41136;51.478;-2.610;2023-11-22T09:44:36;4;3;
55276;PMS5003;41136;51.478;-2.610;2023-11-22T09:47:01;2;2;
55276;PMS5003;41136;51.478;-2.610;2023-11-22T09:49:26;4;2;
55276;PMS5003;41136;51.478;-2.610;2023-11-22T09:51:53;3;3;
55276;PMS5003;41136;51.478;-2.610;2023-11-22T09:54:17;7;6;
55276;PMS5003;41136;51.478;-2.610;2023-11-22T09:56:42;3;2;
55276;PMS5003;41136;51.478;-2.610;2023-11-22T09:59:08;2;2;
55276;PMS5003;41136;51.478;-2.610;2023-11-22T10:01:33;4;4;
55276;PMS5003;41136;51.478;-2.610;2023-11-22T10:03:58;2;2;
55276;PMS5003;41136;51.478;-2.610;2023-11-22T10:06:24;6;4;
55276;PMS5003;41136;51.478;-2.610;2023-11-22T10:08:49;5;5;
55276;PMS5003;41136;51.478;-2.610;2023-11-22T10:11:14;4;3;
55276;PMS5003;41136;51.478;-2.610;2023-11-22T10:13:40;2;2;
55276;PMS5003;41136;51.478;-2.610;2023-11-22T10:16:09;3;2;
55276;PMS5003;41136;51.478;-2.610;2023-11-22T10:18:30;2;2;
55276;PMS5003;41136;51.478;-2.610;2023-11-22T10:20:55;2;2;
55276;PMS5003;41136;51.478;-2.610;2023-11-22T10:23:21;5;4;
55276;PMS5003;41136;51.478;-2.610;2023-11-22T10:25:47;3;3;
55276;PMS5003;41136;51.478;-2.610;2023-11-22T10:28:12;4;4;
55276;PMS5003;41136;51.478;-2.610;2023-11-22T10:30:37;4;4;
55276;PMS5003;41136;51.478;-2.610;2023-11-22T10:33:02;6;4;
55276;PMS5003;41136;51.478;-2.610;2023-11-22T10:35:27;5;5;
55276;PMS5003;41136;51.478;-2.610;2023-11-22T10:37:53;5;3;
55276;PMS5003;41136;51.478;-2.610;2023-11-22T10:40:18;5;5;
55276;PMS5003;41136;51.478;-2.610;2023-11-22T10:42:43;6;5;
55276;PMS5003;41136;51.478;-2.610;2023-11-22T10:45:09;6;5;
55276;PMS5003;41136;51.478;-2.610;2023-11-22T10:47:35;3;3;
55276;PMS5003;41136;51.478;-2.610;2023-11-22T10:49:59;5;5;
55276;PMS5003;41136;51.478;-2.610;2023-11-22T10:52:25;3;3;
55276;PMS5003;41136;51.478;-2.610;2023-11-22T10:54:50;4;4;
55276;PMS5003;41136;51.478;-2.610;2023-11-22T10:57:15;5;5;
55276;PMS5003;41136;51.478;-2.610;2023-11-22T10:59:41;6;6;
55276;PMS5003;41136;51.478;-2.610;2023-11-22T11:02:06;4;3;
55276;PMS5003;41136;51.478;-2.610;2023-11-22T11:04:33;5;4;
55276;PMS5003;41136;51.478;-2.610;2023-11-22T11:06:56;4;4;
55276;PMS5003;41136;51.478;-2.610;2023-11-22T11:09:22;4;4;
55276;PMS5003;41136;51.478;-2.610;2023-11-22T11:11:48;4;4;
55276;PMS5003;41136;51.478;-2.610;2023-11-22T11:14:13;4;4;
55276;PMS5003;41136;51.478;-2.610;2023-11-22T11:16:39;4;3;
55276;PMS5003;41136;51.478;-2.610;2023-11-22T11:19:04;2;2;
55276;PMS5003;41136;51.478;-2.610;2023-11-22T11:21:29;4;3;
55276;PMS5003;41136;51.478;-2.610;2023-11-22T11:23:55;4;2;
55276;PMS5003;41136;51.478;-2.610;2023-11-22T11:26:20;3;3;
55276;PMS5003;41136;51.478;-2.610;2023-11-22T11:28:45;3;3;
55276;PMS5003;41136;51.478;-2.610;2023-11-22T11:31:10;4;4;
55276;PMS5003;41136;51.478;-2.610;2023-11-22T11:33:53;3;3;
55276;PMS5003;41136;51.478;-2.610;2023-11-22T11:36:01;2;2;
55276;PMS5003;41136;51.478;-2.610;2023-11-22T11:38:27;4;4;
55276;PMS5003;41136;51.478;-2.610;2023-11-22T11:40:51;3;3;
55276;PMS5003;41136;51.478;-2.610;2023-11-22T11:43:20;4;4;
55276;PMS5003;41136;51.478;-2.610;2023-11-22T11:45:42;3;3;
55276;PMS5003;41136;51.478;-2.610;2023-11-22T11:48:07;3;3;
55276;PMS5003;41136;51.478;-2.610;2023-11-22T11:50:33;5;2;
55276;PMS5003;41136;51.478;-2.610;2023-11-22T11:52:58;2;2;
55276;PMS5003;41136;51.478;-2.610;2023-11-22T11:55:23;3;3;
55276;PMS5003;41136;51.478;-2.610;2023-11-22T11:57:49;7;7;
55276;PMS5003;41136;51.478;-2.610;2023-11-22T12:00:14;5;3;
55276;PMS5003;41136;51.478;-2.610;2023-11-22T12:02:40;5;3;
55276;PMS5003;41136;51.478;-2.610;2023-11-22T12:05:06;5;5;
55276;PMS5003;41136;51.478;-2.610;2023-11-22T12:07:30;3;3;
55276;PMS5003;41136;51.478;-2.610;2023-11-22T12:09:56;6;5;
55276;PMS5003;41136;51.478;-2.610;2023-11-22T12:12:21;5;5;
55276;PMS5003;41136;51.478;-2.610;2023-11-22T12:14:46;4;4;
55276;PMS5003;41136;51.478;-2.610;2023-11-22T12:17:12;4;4;
55276;PMS5003;41136;51.478;-2.610;2023-11-22T12:19:37;4;4;
55276;PMS5003;41136;51.478;-2.610;2023-11-22T12:22:03;4;4;
55276;PMS5003;41136;51.478;-2.610;2023-11-22T12:24:28;6;6;
55276;PMS5003;41136;51.478;-2.610;2023-11-22T12:26:53;5;5;
55276;PMS5003;41136;51.478;-2.610;2023-11-22T12:29:18;4;4;
55276;PMS5003;41136;51.478;-2.610;2023-11-22T12:31:44;3;3;
55276;PMS5003;41136;51.478;-2.610;2023-11-22T12:34:09;5;5;
55276;PMS5003;41136;51.478;-2.610;2023-11-22T12:36:34;5;5;
55276;PMS5003;41136;51.478;-2.610;2023-11-22T12:39:00;8;8;
55276;PMS5003;41136;51.478;-2.610;2023-11-22T12:41:26;5;5;
55276;PMS5003;41136;51.478;-2.610;2023-11-22T12:46:16;6;6;
55276;PMS5003;41136;51.478;-2.610;2023-11-22T12:48:41;9;9;
55276;PMS5003;41136;51.478;-2.610;2023-11-22T12:51:14;9;8;
55276;PMS5003;41136;51.478;-2.610;2023-11-22T12:53:32;6;6;
55276;PMS5003;41136;51.478;-2.610;2023-11-22T12:55:57;6;5;
55276;PMS5003;41136;51.478;-2.610;2023-11-22T12:58:23;9;9;
55276;PMS5003;41136;51.478;-2.610;2023-11-22T13:00:49;6;6;
55276;PMS5003;41136;51.478;-2.610;2023-11-22T13:03:13;6;6;
55276;PMS5003;41136;51.478;-2.610;2023-11-22T13:05:39;6;6;
55276;PMS5003;41136;51.478;-2.610;2023-11-22T13:08:04;10;8;
55276;PMS5003;41136;51.478;-2.610;2023-11-22T13:10:30;8;6;
55276;PMS5003;41136;51.478;-2.610;2023-11-22T13:12:56;9;8;
55276;PMS5003;41136;51.478;-2.610;2023-11-22T13:15:21;8;7;
55276;PMS5003;41136;51.478;-2.610;2023-11-22T13:17:47;11;10;
55276;PMS5003;41136;51.478;-2.610;2023-11-22T13:20:12;9;9;
55276;PMS5003;41136;51.478;-2.610;2023-11-22T13:22:38;9;9;
55276;PMS5003;41136;51.478;-2.610;2023-11-22T13:25:03;9;9;
55276;PMS5003;41136;51.478;-2.610;2023-11-22T13:27:29;11;8;
55276;PMS5003;41136;51.478;-2.610;2023-11-22T13:29:54;5;5;
55276;PMS5003;41136;51.478;-2.610;2023-11-22T13:32:20;10;8;
55276;PMS5003;41136;51.478;-2.610;2023-11-22T13:34:45;7;7;
55276;PMS5003;41136;51.478;-2.610;2023-11-22T13:37:10;7;7;
55276;PMS5003;41136;51.478;-2.610;2023-11-22T13:39:36;8;7;
55276;PMS5003;41136;51.478;-2.610;2023-11-22T13:42:01;6;6;
55276;PMS5003;41136;51.478;-2.610;2023-11-22T13:44:26;5;5;
55276;PMS5003;41136;51.478;-2.610;2023-11-22T13:46:52;6;6;
55276;PMS5003;41136;51.478;-2.610;2023-11-22T13:49:17;7;6;
55276;PMS5003;41136;51.478;-2.610;2023-11-22T13:51:42;7;7;
55276;PMS5003;41136;51.478;-2.610;2023-11-22T13:54:08;7;5;
55276;PMS5003;41136;51.478;-2.610;2023-11-22T13:56:33;5;5;
55276;PMS5003;41136;51.478;-2.610;2023-11-22T13:58:58;6;6;
55276;PMS5003;41136;51.478;-2.610;2023-11-22T14:01:24;7;5;
55276;PMS5003;41136;51.478;-2.610;2023-11-22T14:03:49;9;7;
55276;PMS5003;41136;51.478;-2.610;2023-11-22T14:06:14;6;6;
55276;PMS5003;41136;51.478;-2.610;2023-11-22T14:08:39;9;8;
55276;PMS5003;41136;51.478;-2.610;2023-11-22T14:11:05;8;8;
55276;PMS5003;41136;51.478;-2.610;2023-11-22T14:13:30;5;5;
55276;PMS5003;41136;51.478;-2.610;2023-11-22T14:15:55;6;6;
55276;PMS5003;41136;51.478;-2.610;2023-11-22T14:18:21;8;8;
55276;PMS5003;41136;51.478;-2.610;2023-11-22T14:20:47;7;5;
55276;PMS5003;41136;51.478;-2.610;2023-11-22T14:23:12;6;5;
55276;PMS5003;41136;51.478;-2.610;2023-11-22T14:25:37;4;4;
55276;PMS5003;41136;51.478;-2.610;2023-11-22T14:28:03;5;5;
55276;PMS5003;41136;51.478;-2.610;2023-11-22T14:30:28;2;2;
55276;PMS5003;41136;51.478;-2.610;2023-11-22T14:32:53;5;4;
55276;PMS5003;41136;51.478;-2.610;2023-11-22T14:35:19;2;2;
55276;PMS5003;41136;51.478;-2.610;2023-11-22T14:37:44;4;2;
55276;PMS5003;41136;51.478;-2.610;2023-11-22T14:40:09;4;4;
55276;PMS5003;41136;51.478;-2.610;2023-11-22T14:42:35;5;5;
55276;PMS5003;41136;51.478;-2.610;2023-11-22T14:45:01;13;13;
55276;PMS5003;41136;51.478;-2.610;2023-11-22T14:47:25;9;9;
55276;PMS5003;41136;51.478;-2.610;2023-11-22T14:49:51;12;12;
55276;PMS5003;41136;51.478;-2.610;2023-11-22T14:52:17;7;7;
55276;PMS5003;41136;51.478;-2.610;2023-11-22T14:54:42;9;9;
55276;PMS5003;41136;51.478;-2.610;2023-11-22T14:57:07;7;7;
55276;PMS5003;41136;51.478;-2.610;2023-11-22T14:59:32;9;9;
55276;PMS5003;41136;51.478;-2.610;2023-11-22T15:01:58;7;7;
55276;PMS5003;41136;51.478;-2.610;2023-11-22T15:04:23;11;10;
55276;PMS5003;41136;51.478;-2.610;2023-11-22T15:06:48;15;14;
55276;PMS5003;41136;51.478;-2.610;2023-11-22T15:09:14;9;8;
55276;PMS5003;41136;51.478;-2.610;2023-11-22T15:11:39;4;4;
55276;PMS5003;41136;51.478;-2.610;2023-11-22T15:14:04;3;3;
55276;PMS5003;41136;51.478;-2.610;2023-11-22T15:16:30;6;6;
55276;PMS5003;41136;51.478;-2.610;2023-11-22T15:18:55;6;5;
55276;PMS5003;41136;51.478;-2.610;2023-11-22T15:21:20;10;9;
55276;PMS5003;41136;51.478;-2.610;2023-11-22T15:23:46;5;4;
55276;PMS5003;41136;51.478;-2.610;2023-11-22T15:26:11;6;5;
55276;PMS5003;41136;51.478;-2.610;2023-11-22T15:28:36;7;7;
55276;PMS5003;41136;51.478;-2.610;2023-11-22T15:31:02;6;6;
55276;PMS5003;41136;51.478;-2.610;2023-11-22T15:33:27;7;7;
55276;PMS5003;41136;51.478;-2.610;2023-11-22T15:35:52;7;6;
55276;PMS5003;41136;51.478;-2.610;2023-11-22T15:38:17;6;6;
55276;PMS5003;41136;51.478;-2.610;2023-11-22T15:40:43;4;3;
55276;PMS5003;41136;51.478;-2.610;2023-11-22T15:43:08;6;6;
55276;PMS5003;41136;51.478;-2.610;2023-11-22T15:45:34;6;5;
55276;PMS5003;41136;51.478;-2.610;2023-11-22T15:47:59;6;6;
55276;PMS5003;41136;51.478;-2.610;2023-11-22T15:50:24;5;5;
55276;PMS5003;41136;51.478;-2.610;2023-11-22T15:52:50;22;21;
55276;PMS5003;41136;51.478;-2.610;2023-11-22T15:55:15;35;34;
55276;PMS5003;41136;51.478;-2.610;2023-11-22T15:57:41;26;22;
55276;PMS5003;41136;51.478;-2.610;2023-11-22T16:00:07;8;7;
55276;PMS5003;41136;51.478;-2.610;2023-11-22T16:02:32;19;18;
55276;PMS5003;41136;51.478;-2.610;2023-11-22T16:04:57;30;30;
55276;PMS5003;41136;51.478;-2.610;2023-11-22T16:07:22;20;16;
55276;PMS5003;41136;51.478;-2.610;2023-11-22T16:09:47;10;10;
55276;PMS5003;41136;51.478;-2.610;2023-11-22T16:12:12;12;11;
55276;PMS5003;41136;51.478;-2.610;2023-11-22T16:14:38;15;12;
55276;PMS5003;41136;51.478;-2.610;2023-11-22T16:17:03;8;7;
55276;PMS5003;41136;51.478;-2.610;2023-11-22T16:19:29;12;10;
55276;PMS5003;41136;51.478;-2.610;2023-11-22T16:21:54;8;8;
55276;PMS5003;41136;51.478;-2.610;2023-11-22T16:24:19;7;5;
55276;PMS5003;41136;51.478;-2.610;2023-11-22T16:26:44;8;8;
55276;PMS5003;41136;51.478;-2.610;2023-11-22T16:29:09;7;7;